sensor_id;sensor_type;location;lat;lon;timestamp;P1;durP1;ratioP1;P2;durP2;ratioP2
40871;SDS011;26591;43.264;26.940;2022-11-15T00:00:06;34.10;;;19.40;;
40871;SDS011;26591;43.264;26.940;2022-11-15T00:02:32;31.10;;;18.95;;
40871;SDS011;26591;43.264;26.940;2022-11-15T00:04:57;29.42;;;18.42;;
40871;SDS011;26591;43.264;26.940;2022-11-15T00:07:23;29.20;;;18.50;;
40871;SDS011;26591;43.264;26.940;2022-11-15T00:09:48;27.80;;;17.00;;
40871;SDS011;26591;43.264;26.940;2022-11-15T00:12:14;30.10;;;18.40;;
40871;SDS011;26591;43.264;26.940;2022-11-15T00:14:41;29.17;;;18.10;;
40871;SDS011;26591;43.264;26.940;2022-11-15T00:17:06;27.13;;;16.48;;
40871;SDS011;26591;43.264;26.940;2022-11-15T00:19:31;32.47;;;17.65;;
40871;SDS011;26591;43.264;26.940;2022-11-15T00:21:58;27.67;;;17.13;;
40871;SDS011;26591;43.264;26.940;2022-11-15T00:24:23;27.67;;;16.67;;
40871;SDS011;26591;43.264;26.940;2022-11-15T00:26:49;28.58;;;16.90;;
40871;SDS011;26591;43.264;26.940;2022-11-15T00:29:14;26.38;;;16.65;;
40871;SDS011;26591;43.264;26.940;2022-11-15T00:31:40;28.40;;;17.42;;
40871;SDS011;26591;43.264;26.940;2022-11-15T00:34:08;26.45;;;16.20;;
40871;SDS011;26591;43.264;26.940;2022-11-15T00:36:34;26.10;;;16.20;;
40871;SDS011;26591;43.264;26.940;2022-11-15T00:39:00;26.58;;;16.85;;
40871;SDS011;26591;43.264;26.940;2022-11-15T00:41:25;26.35;;;16.65;;
40871;SDS011;26591;43.264;26.940;2022-11-15T00:43:51;29.65;;;17.52;;
40871;SDS011;26591;43.264;26.940;2022-11-15T00:46:16;27.52;;;17.00;;
40871;SDS011;26591;43.264;26.940;2022-11-15T00:48:42;26.85;;;16.33;;
40871;SDS011;26591;43.264;26.940;2022-11-15T00:51:07;27.77;;;16.20;;
40871;SDS011;26591;43.264;26.940;2022-11-15T00:53:33;28.83;;;16.45;;
40871;SDS011;26591;43.264;26.940;2022-11-15T00:55:58;26.27;;;16.08;;
40871;SDS011;26591;43.264;26.940;2022-11-15T00:58:24;28.73;;;16.55;;
40871;SDS011;26591;43.264;26.940;2022-11-15T01:00:50;30.23;;;17.25;;
40871;SDS011;26591;43.264;26.940;2022-11-15T01:03:15;28.17;;;16.65;;
40871;SDS011;26591;43.264;26.940;2022-11-15T01:05:41;26.70;;;17.23;;
40871;SDS011;26591;43.264;26.940;2022-11-15T01:08:10;24.75;;;15.73;;
40871;SDS011;26591;43.264;26.940;2022-11-15T01:10:43;23.50;;;15.73;;
40871;SDS011;26591;43.264;26.940;2022-11-15T01:13:08;27.17;;;15.90;;
40871;SDS011;26591;43.264;26.940;2022-11-15T01:15:34;28.08;;;15.68;;
40871;SDS011;26591;43.264;26.940;2022-11-15T01:17:59;22.77;;;15.43;;
40871;SDS011;26591;43.264;26.940;2022-11-15T01:20:25;26.40;;;16.20;;
40871;SDS011;26591;43.264;26.940;2022-11-15T01:22:50;25.13;;;14.57;;
40871;SDS011;26591;43.264;26.940;2022-11-15T01:25:16;24.75;;;15.75;;
40871;SDS011;26591;43.264;26.940;2022-11-15T01:27:41;20.63;;;14.82;;
40871;SDS011;26591;43.264;26.940;2022-11-15T01:30:07;25.52;;;14.77;;
40871;SDS011;26591;43.264;26.940;2022-11-15T01:32:33;24.08;;;15.05;;
40871;SDS011;26591;43.264;26.940;2022-11-15T01:40:15;30.58;;;15.75;;
40871;SDS011;26591;43.264;26.940;2022-11-15T01:42:40;26.60;;;16.15;;
40871;SDS011;26591;43.264;26.940;2022-11-15T01:45:09;23.48;;;14.63;;
40871;SDS011;26591;43.264;26.940;2022-11-15T01:47:40;24.10;;;15.35;;
40871;SDS011;26591;43.264;26.940;2022-11-15T01:50:14;24.83;;;15.63;;
40871;SDS011;26591;43.264;26.940;2022-11-15T01:52:42;27.35;;;15.20;;
40871;SDS011;26591;43.264;26.940;2022-11-15T01:55:09;28.52;;;16.00;;
40871;SDS011;26591;43.264;26.940;2022-11-15T01:57:58;24.27;;;15.48;;
40871;SDS011;26591;43.264;26.940;2022-11-15T02:02:53;24.67;;;15.35;;
40871;SDS011;26591;43.264;26.940;2022-11-15T02:05:18;25.90;;;14.75;;
40871;SDS011;26591;43.264;26.940;2022-11-15T02:07:44;25.70;;;14.80;;
40871;SDS011;26591;43.264;26.940;2022-11-15T02:10:14;24.60;;;15.68;;
40871;SDS011;26591;43.264;26.940;2022-11-15T02:12:43;25.00;;;16.20;;
40871;SDS011;26591;43.264;26.940;2022-11-15T02:15:10;26.60;;;15.23;;
40871;SDS011;26591;43.264;26.940;2022-11-15T02:29:10;33.00;;;19.70;;
40871;SDS011;26591;43.264;26.940;2022-11-15T02:43:08;31.55;;;16.75;;
40871;SDS011;26591;43.264;26.940;2022-11-15T02:46:00;26.08;;;16.63;;
40871;SDS011;26591;43.264;26.940;2022-11-15T02:48:32;25.90;;;15.95;;
40871;SDS011;26591;43.264;26.940;2022-11-15T02:50:59;28.15;;;17.05;;
40871;SDS011;26591;43.264;26.940;2022-11-15T02:53:25;26.63;;;17.98;;
40871;SDS011;26591;43.264;26.940;2022-11-15T02:55:54;27.05;;;17.35;;
40871;SDS011;26591;43.264;26.940;2022-11-15T03:04:16;25.55;;;16.73;;
40871;SDS011;26591;43.264;26.940;2022-11-15T03:06:47;24.83;;;17.48;;
40871;SDS011;26591;43.264;26.940;2022-11-15T03:09:28;25.92;;;17.42;;
40871;SDS011;26591;43.264;26.940;2022-11-15T03:12:04;23.70;;;15.38;;
40871;SDS011;26591;43.264;26.940;2022-11-15T03:14:51;26.67;;;16.33;;
40871;SDS011;26591;43.264;26.940;2022-11-15T03:17:33;25.27;;;15.68;;
40871;SDS011;26591;43.264;26.940;2022-11-15T03:20:17;23.20;;;15.38;;
40871;SDS011;26591;43.264;26.940;2022-11-15T03:22:49;25.23;;;15.77;;
40871;SDS011;26591;43.264;26.940;2022-11-15T03:25:17;27.75;;;17.13;;
40871;SDS011;26591;43.264;26.940;2022-11-15T03:27:47;25.27;;;16.47;;
40871;SDS011;26591;43.264;26.940;2022-11-15T03:30:20;31.42;;;15.13;;
40871;SDS011;26591;43.264;26.940;2022-11-15T03:33:04;31.75;;;16.95;;
40871;SDS011;26591;43.264;26.940;2022-11-15T03:35:32;28.08;;;16.30;;
40871;SDS011;26591;43.264;26.940;2022-11-15T03:38:11;27.10;;;16.10;;
40871;SDS011;26591;43.264;26.940;2022-11-15T03:40:44;28.88;;;16.42;;
40871;SDS011;26591;43.264;26.940;2022-11-15T03:43:18;23.13;;;15.90;;
40871;SDS011;26591;43.264;26.940;2022-11-15T03:46:16;28.75;;;15.57;;
40871;SDS011;26591;43.264;26.940;2022-11-15T03:49:08;27.50;;;16.17;;
40871;SDS011;26591;43.264;26.940;2022-11-15T03:51:39;23.60;;;14.68;;
40871;SDS011;26591;43.264;26.940;2022-11-15T03:54:05;22.55;;;14.80;;
40871;SDS011;26591;43.264;26.940;2022-11-15T03:56:31;21.83;;;14.50;;
40871;SDS011;26591;43.264;26.940;2022-11-15T03:58:59;22.58;;;14.25;;
40871;SDS011;26591;43.264;26.940;2022-11-15T04:01:25;23.67;;;14.45;;
40871;SDS011;26591;43.264;26.940;2022-11-15T04:03:51;21.90;;;13.98;;
40871;SDS011;26591;43.264;26.940;2022-11-15T04:06:16;24.73;;;14.23;;
40871;SDS011;26591;43.264;26.940;2022-11-15T04:08:42;21.02;;;13.68;;
40871;SDS011;26591;43.264;26.940;2022-11-15T04:11:07;24.70;;;14.55;;
40871;SDS011;26591;43.264;26.940;2022-11-15T04:13:33;22.15;;;14.00;;
40871;SDS011;26591;43.264;26.940;2022-11-15T04:15:58;29.60;;;15.90;;
40871;SDS011;26591;43.264;26.940;2022-11-15T04:18:24;26.02;;;16.20;;
40871;SDS011;26591;43.264;26.940;2022-11-15T04:20:49;26.27;;;15.82;;
40871;SDS011;26591;43.264;26.940;2022-11-15T04:23:34;24.45;;;14.48;;
40871;SDS011;26591;43.264;26.940;2022-11-15T04:26:21;23.02;;;13.93;;
40871;SDS011;26591;43.264;26.940;2022-11-15T04:28:48;22.63;;;13.90;;
40871;SDS011;26591;43.264;26.940;2022-11-15T04:31:32;21.77;;;14.50;;
40871;SDS011;26591;43.264;26.940;2022-11-15T04:33:58;23.17;;;14.23;;
40871;SDS011;26591;43.264;26.940;2022-11-15T04:36:24;25.30;;;14.18;;
40871;SDS011;26591;43.264;26.940;2022-11-15T04:39:08;24.38;;;14.57;;
40871;SDS011;26591;43.264;26.940;2022-11-15T04:41:34;24.48;;;14.20;;
40871;SDS011;26591;43.264;26.940;2022-11-15T04:44:06;28.70;;;15.80;;
40871;SDS011;26591;43.264;26.940;2022-11-15T04:46:31;27.60;;;15.68;;
40871;SDS011;26591;43.264;26.940;2022-11-15T04:48:57;28.20;;;15.95;;
40871;SDS011;26591;43.264;26.940;2022-11-15T04:51:22;27.90;;;15.32;;
40871;SDS011;26591;43.264;26.940;2022-11-15T04:56:37;27.20;;;16.10;;
40871;SDS011;26591;43.264;26.940;2022-11-15T04:59:02;25.58;;;16.20;;
40871;SDS011;26591;43.264;26.940;2022-11-15T05:01:28;28.08;;;16.05;;
40871;SDS011;26591;43.264;26.940;2022-11-15T05:03:53;31.63;;;19.02;;
40871;SDS011;26591;43.264;26.940;2022-11-15T05:06:38;39.83;;;17.92;;
40871;SDS011;26591;43.264;26.940;2022-11-15T05:09:03;32.42;;;17.80;;
40871;SDS011;26591;43.264;26.940;2022-11-15T05:11:29;28.27;;;17.20;;
40871;SDS011;26591;43.264;26.940;2022-11-15T05:13:55;31.27;;;17.67;;
40871;SDS011;26591;43.264;26.940;2022-11-15T05:16:21;34.15;;;17.95;;
40871;SDS011;26591;43.264;26.940;2022-11-15T05:18:46;36.50;;;17.88;;
40871;SDS011;26591;43.264;26.940;2022-11-15T05:21:15;34.70;;;17.13;;
40871;SDS011;26591;43.264;26.940;2022-11-15T05:23:41;31.50;;;17.80;;
40871;SDS011;26591;43.264;26.940;2022-11-15T05:26:07;28.85;;;16.33;;
40871;SDS011;26591;43.264;26.940;2022-11-15T05:28:34;36.88;;;17.08;;
40871;SDS011;26591;43.264;26.940;2022-11-15T05:31:04;47.00;;;19.25;;
40871;SDS011;26591;43.264;26.940;2022-11-15T05:33:33;39.55;;;18.70;;
40871;SDS011;26591;43.264;26.940;2022-11-15T05:36:45;32.13;;;18.15;;
40871;SDS011;26591;43.264;26.940;2022-11-15T05:38:51;34.70;;;17.08;;
40871;SDS011;26591;43.264;26.940;2022-11-15T05:41:18;35.22;;;17.60;;
40871;SDS011;26591;43.264;26.940;2022-11-15T05:43:49;35.60;;;18.20;;
40871;SDS011;26591;43.264;26.940;2022-11-15T05:46:15;43.00;;;16.30;;
40871;SDS011;26591;43.264;26.940;2022-11-15T05:48:43;35.17;;;16.25;;
40871;SDS011;26591;43.264;26.940;2022-11-15T05:51:12;41.45;;;18.92;;
40871;SDS011;26591;43.264;26.940;2022-11-15T05:53:40;37.33;;;18.23;;
40871;SDS011;26591;43.264;26.940;2022-11-15T05:56:06;40.15;;;18.20;;
40871;SDS011;26591;43.264;26.940;2022-11-15T05:58:32;41.53;;;18.70;;
40871;SDS011;26591;43.264;26.940;2022-11-15T06:00:58;36.00;;;18.80;;
40871;SDS011;26591;43.264;26.940;2022-11-15T06:03:25;36.67;;;18.55;;
40871;SDS011;26591;43.264;26.940;2022-11-15T06:05:50;55.38;;;20.02;;
40871;SDS011;26591;43.264;26.940;2022-11-15T06:08:16;40.22;;;18.67;;
40871;SDS011;26591;43.264;26.940;2022-11-15T06:10:41;33.63;;;17.25;;
40871;SDS011;26591;43.264;26.940;2022-11-15T06:13:07;26.63;;;16.88;;
40871;SDS011;26591;43.264;26.940;2022-11-15T06:15:32;32.75;;;17.80;;
40871;SDS011;26591;43.264;26.940;2022-11-15T06:17:59;30.27;;;18.88;;
40871;SDS011;26591;43.264;26.940;2022-11-15T06:20:26;36.13;;;18.40;;
40871;SDS011;26591;43.264;26.940;2022-11-15T06:22:59;34.38;;;18.90;;
40871;SDS011;26591;43.264;26.940;2022-11-15T06:25:26;31.30;;;18.17;;
40871;SDS011;26591;43.264;26.940;2022-11-15T06:27:56;37.63;;;19.90;;
40871;SDS011;26591;43.264;26.940;2022-11-15T06:30:23;35.10;;;18.77;;
40871;SDS011;26591;43.264;26.940;2022-11-15T06:32:50;42.95;;;19.27;;
40871;SDS011;26591;43.264;26.940;2022-11-15T06:35:16;51.17;;;22.52;;
40871;SDS011;26591;43.264;26.940;2022-11-15T06:37:41;54.22;;;22.65;;
40871;SDS011;26591;43.264;26.940;2022-11-15T06:40:08;52.67;;;26.73;;
40871;SDS011;26591;43.264;26.940;2022-11-15T06:42:35;57.72;;;25.77;;
40871;SDS011;26591;43.264;26.940;2022-11-15T06:45:01;44.08;;;22.00;;
40871;SDS011;26591;43.264;26.940;2022-11-15T06:47:27;76.47;;;24.60;;
40871;SDS011;26591;43.264;26.940;2022-11-15T06:49:53;37.17;;;20.48;;
40871;SDS011;26591;43.264;26.940;2022-11-15T06:52:18;44.08;;;20.50;;
40871;SDS011;26591;43.264;26.940;2022-11-15T06:54:44;52.50;;;19.08;;
40871;SDS011;26591;43.264;26.940;2022-11-15T06:57:10;33.47;;;16.58;;
40871;SDS011;26591;43.264;26.940;2022-11-15T06:59:36;30.38;;;16.45;;
40871;SDS011;26591;43.264;26.940;2022-11-15T07:02:02;36.90;;;18.88;;
40871;SDS011;26591;43.264;26.940;2022-11-15T07:04:27;33.38;;;18.30;;
40871;SDS011;26591;43.264;26.940;2022-11-15T07:06:53;25.88;;;16.27;;
40871;SDS011;26591;43.264;26.940;2022-11-15T07:09:18;28.70;;;16.60;;
40871;SDS011;26591;43.264;26.940;2022-11-15T07:11:44;25.85;;;16.63;;
40871;SDS011;26591;43.264;26.940;2022-11-15T07:14:09;30.33;;;18.92;;
40871;SDS011;26591;43.264;26.940;2022-11-15T07:16:35;34.97;;;17.65;;
40871;SDS011;26591;43.264;26.940;2022-11-15T07:19:01;32.78;;;15.45;;
40871;SDS011;26591;43.264;26.940;2022-11-15T07:21:27;30.58;;;18.15;;
40871;SDS011;26591;43.264;26.940;2022-11-15T07:23:52;28.52;;;16.58;;
40871;SDS011;26591;43.264;26.940;2022-11-15T07:26:18;38.85;;;22.80;;
40871;SDS011;26591;43.264;26.940;2022-11-15T07:28:43;27.65;;;17.75;;
40871;SDS011;26591;43.264;26.940;2022-11-15T07:31:09;33.13;;;18.20;;
40871;SDS011;26591;43.264;26.940;2022-11-15T07:33:35;35.05;;;19.60;;
40871;SDS011;26591;43.264;26.940;2022-11-15T07:36:01;27.75;;;16.98;;
40871;SDS011;26591;43.264;26.940;2022-11-15T07:38:31;30.45;;;18.23;;
40871;SDS011;26591;43.264;26.940;2022-11-15T07:41:02;48.88;;;19.45;;
40871;SDS011;26591;43.264;26.940;2022-11-15T07:43:29;27.35;;;18.33;;
40871;SDS011;26591;43.264;26.940;2022-11-15T07:45:57;43.40;;;19.90;;
40871;SDS011;26591;43.264;26.940;2022-11-15T07:48:23;29.98;;;18.48;;
40871;SDS011;26591;43.264;26.940;2022-11-15T07:50:49;37.40;;;18.83;;
40871;SDS011;26591;43.264;26.940;2022-11-15T07:53:14;34.72;;;18.70;;
40871;SDS011;26591;43.264;26.940;2022-11-15T07:55:40;32.30;;;19.90;;
40871;SDS011;26591;43.264;26.940;2022-11-15T07:58:07;29.73;;;18.70;;
40871;SDS011;26591;43.264;26.940;2022-11-15T08:00:35;28.15;;;17.92;;
40871;SDS011;26591;43.264;26.940;2022-11-15T08:03:02;28.38;;;18.33;;
40871;SDS011;26591;43.264;26.940;2022-11-15T08:05:27;34.03;;;23.00;;
40871;SDS011;26591;43.264;26.940;2022-11-15T08:07:55;32.22;;;20.92;;
40871;SDS011;26591;43.264;26.940;2022-11-15T08:10:21;36.10;;;20.45;;
40871;SDS011;26591;43.264;26.940;2022-11-15T08:12:46;36.95;;;20.38;;
40871;SDS011;26591;43.264;26.940;2022-11-15T08:15:12;37.78;;;19.77;;
40871;SDS011;26591;43.264;26.940;2022-11-15T08:17:37;32.78;;;20.15;;
40871;SDS011;26591;43.264;26.940;2022-11-15T08:20:03;39.65;;;20.83;;
40871;SDS011;26591;43.264;26.940;2022-11-15T08:22:28;33.03;;;21.60;;
40871;SDS011;26591;43.264;26.940;2022-11-15T08:24:54;28.08;;;18.92;;
40871;SDS011;26591;43.264;26.940;2022-11-15T08:27:19;33.42;;;19.98;;
40871;SDS011;26591;43.264;26.940;2022-11-15T08:29:45;36.13;;;18.40;;
40871;SDS011;26591;43.264;26.940;2022-11-15T08:32:13;31.05;;;19.67;;
40871;SDS011;26591;43.264;26.940;2022-11-15T08:34:38;27.48;;;17.65;;
40871;SDS011;26591;43.264;26.940;2022-11-15T08:37:04;26.75;;;17.48;;
40871;SDS011;26591;43.264;26.940;2022-11-15T08:39:29;38.78;;;18.50;;
40871;SDS011;26591;43.264;26.940;2022-11-15T08:41:55;34.53;;;18.58;;
40871;SDS011;26591;43.264;26.940;2022-11-15T08:44:21;29.42;;;17.23;;
40871;SDS011;26591;43.264;26.940;2022-11-15T08:46:46;30.65;;;18.60;;
40871;SDS011;26591;43.264;26.940;2022-11-15T08:49:12;24.50;;;15.20;;
40871;SDS011;26591;43.264;26.940;2022-11-15T08:51:37;22.08;;;14.32;;
40871;SDS011;26591;43.264;26.940;2022-11-15T08:54:03;23.45;;;15.15;;
40871;SDS011;26591;43.264;26.940;2022-11-15T08:56:29;27.02;;;16.35;;
40871;SDS011;26591;43.264;26.940;2022-11-15T08:58:54;22.90;;;15.07;;
40871;SDS011;26591;43.264;26.940;2022-11-15T09:01:20;21.77;;;14.63;;
40871;SDS011;26591;43.264;26.940;2022-11-15T09:03:46;23.08;;;13.80;;
40871;SDS011;26591;43.264;26.940;2022-11-15T09:06:12;18.65;;;12.98;;
40871;SDS011;26591;43.264;26.940;2022-11-15T09:08:37;18.02;;;12.43;;
40871;SDS011;26591;43.264;26.940;2022-11-15T09:11:08;23.25;;;15.07;;
40871;SDS011;26591;43.264;26.940;2022-11-15T09:13:35;24.65;;;14.85;;
40871;SDS011;26591;43.264;26.940;2022-11-15T09:16:02;33.47;;;14.70;;
40871;SDS011;26591;43.264;26.940;2022-11-15T09:18:29;47.97;;;16.88;;
40871;SDS011;26591;43.264;26.940;2022-11-15T09:20:55;17.25;;;11.32;;
40871;SDS011;26591;43.264;26.940;2022-11-15T09:23:22;13.02;;;7.88;;
40871;SDS011;26591;43.264;26.940;2022-11-15T09:25:47;19.52;;;10.43;;
40871;SDS011;26591;43.264;26.940;2022-11-15T09:28:13;21.23;;;11.85;;
40871;SDS011;26591;43.264;26.940;2022-11-15T09:30:38;24.00;;;13.07;;
40871;SDS011;26591;43.264;26.940;2022-11-15T09:33:08;20.48;;;14.38;;
40871;SDS011;26591;43.264;26.940;2022-11-15T09:35:34;13.68;;;9.48;;
40871;SDS011;26591;43.264;26.940;2022-11-15T09:38:00;18.70;;;7.75;;
40871;SDS011;26591;43.264;26.940;2022-11-15T09:40:26;10.85;;;6.85;;
40871;SDS011;26591;43.264;26.940;2022-11-15T09:45:31;15.35;;;5.93;;
40871;SDS011;26591;43.264;26.940;2022-11-15T09:50:39;8.48;;;5.63;;
40871;SDS011;26591;43.264;26.940;2022-11-15T09:53:12;15.48;;;5.68;;
40871;SDS011;26591;43.264;26.940;2022-11-15T09:56:17;15.38;;;6.13;;
40871;SDS011;26591;43.264;26.940;2022-11-15T09:58:48;11.60;;;6.85;;
40871;SDS011;26591;43.264;26.940;2022-11-15T10:04:25;10.82;;;6.50;;
40871;SDS011;26591;43.264;26.940;2022-11-15T10:07:02;10.82;;;7.50;;
40871;SDS011;26591;43.264;26.940;2022-11-15T10:09:37;11.63;;;7.05;;
40871;SDS011;26591;43.264;26.940;2022-11-15T10:12:09;12.35;;;7.53;;
40871;SDS011;26591;43.264;26.940;2022-11-15T10:14:38;12.98;;;8.10;;
40871;SDS011;26591;43.264;26.940;2022-11-15T10:17:09;13.07;;;8.35;;
40871;SDS011;26591;43.264;26.940;2022-11-15T10:22:50;17.85;;;9.38;;
40871;SDS011;26591;43.264;26.940;2022-11-15T10:25:20;21.30;;;10.77;;
40871;SDS011;26591;43.264;26.940;2022-11-15T10:28:11;13.55;;;8.35;;
40871;SDS011;26591;43.264;26.940;2022-11-15T10:30:45;13.80;;;8.25;;
40871;SDS011;26591;43.264;26.940;2022-11-15T10:35:49;14.50;;;8.25;;
40871;SDS011;26591;43.264;26.940;2022-11-15T10:41:21;20.58;;;10.23;;
40871;SDS011;26591;43.264;26.940;2022-11-15T10:44:03;13.10;;;9.45;;
40871;SDS011;26591;43.264;26.940;2022-11-15T10:46:42;15.68;;;10.35;;
40871;SDS011;26591;43.264;26.940;2022-11-15T10:49:13;14.82;;;10.25;;
40871;SDS011;26591;43.264;26.940;2022-11-15T10:51:43;19.38;;;11.70;;
40871;SDS011;26591;43.264;26.940;2022-11-15T10:57:48;20.83;;;12.75;;
40871;SDS011;26591;43.264;26.940;2022-11-15T11:00:04;25.58;;;11.48;;
40871;SDS011;26591;43.264;26.940;2022-11-15T11:02:37;20.38;;;11.82;;
40871;SDS011;26591;43.264;26.940;2022-11-15T11:07:59;13.27;;;8.85;;
40871;SDS011;26591;43.264;26.940;2022-11-15T11:10:27;18.92;;;11.07;;
40871;SDS011;26591;43.264;26.940;2022-11-15T11:12:53;24.48;;;10.98;;
40871;SDS011;26591;43.264;26.940;2022-11-15T11:15:19;27.85;;;13.18;;
40871;SDS011;26591;43.264;26.940;2022-11-15T11:20:46;16.27;;;10.80;;
40871;SDS011;26591;43.264;26.940;2022-11-15T11:29:36;15.40;;;9.73;;
40871;SDS011;26591;43.264;26.940;2022-11-15T11:32:21;15.77;;;9.02;;
40871;SDS011;26591;43.264;26.940;2022-11-15T11:50:39;20.93;;;9.23;;
40871;SDS011;26591;43.264;26.940;2022-11-15T11:56:21;13.63;;;8.40;;
40871;SDS011;26591;43.264;26.940;2022-11-15T11:58:53;14.10;;;9.90;;
40871;SDS011;26591;43.264;26.940;2022-11-15T12:01:24;15.57;;;10.15;;
40871;SDS011;26591;43.264;26.940;2022-11-15T12:09:46;13.65;;;10.07;;
40871;SDS011;26591;43.264;26.940;2022-11-15T12:12:08;18.65;;;10.25;;
40871;SDS011;26591;43.264;26.940;2022-11-15T12:14:51;19.02;;;10.98;;
40871;SDS011;26591;43.264;26.940;2022-11-15T12:17:24;16.45;;;9.07;;
40871;SDS011;26591;43.264;26.940;2022-11-15T12:19:58;13.63;;;8.53;;
40871;SDS011;26591;43.264;26.940;2022-11-15T12:28:06;15.00;;;9.75;;
40871;SDS011;26591;43.264;26.940;2022-11-15T12:30:50;20.65;;;9.77;;
40871;SDS011;26591;43.264;26.940;2022-11-15T12:41:24;20.92;;;12.68;;
40871;SDS011;26591;43.264;26.940;2022-11-15T12:43:57;27.55;;;13.98;;
40871;SDS011;26591;43.264;26.940;2022-11-15T12:52:07;16.58;;;12.07;;
40871;SDS011;26591;43.264;26.940;2022-11-15T13:02:23;13.65;;;9.60;;
40871;SDS011;26591;43.264;26.940;2022-11-15T13:04:50;15.93;;;10.32;;
40871;SDS011;26591;43.264;26.940;2022-11-15T13:20:18;16.70;;;9.43;;
40871;SDS011;26591;43.264;26.940;2022-11-15T13:30:39;15.18;;;9.88;;
40871;SDS011;26591;43.264;26.940;2022-11-15T13:33:08;16.83;;;11.38;;
40871;SDS011;26591;43.264;26.940;2022-11-15T13:36:05;16.73;;;10.80;;
40871;SDS011;26591;43.264;26.940;2022-11-15T13:38:37;21.48;;;11.50;;
40871;SDS011;26591;43.264;26.940;2022-11-15T13:41:13;16.83;;;10.65;;
40871;SDS011;26591;43.264;26.940;2022-11-15T13:43:48;19.95;;;12.35;;
40871;SDS011;26591;43.264;26.940;2022-11-15T13:46:19;20.08;;;11.57;;
40871;SDS011;26591;43.264;26.940;2022-11-15T13:48:46;18.58;;;11.27;;
40871;SDS011;26591;43.264;26.940;2022-11-15T13:54:00;25.13;;;14.95;;
40871;SDS011;26591;43.264;26.940;2022-11-15T13:56:33;24.02;;;14.23;;
40871;SDS011;26591;43.264;26.940;2022-11-15T13:59:00;19.95;;;13.63;;
40871;SDS011;26591;43.264;26.940;2022-11-15T14:01:33;19.42;;;13.27;;
40871;SDS011;26591;43.264;26.940;2022-11-15T14:03:59;16.45;;;11.13;;
40871;SDS011;26591;43.264;26.940;2022-11-15T14:06:27;18.17;;;11.63;;
40871;SDS011;26591;43.264;26.940;2022-11-15T14:08:59;21.83;;;12.68;;
40871;SDS011;26591;43.264;26.940;2022-11-15T14:11:34;34.08;;;15.18;;
40871;SDS011;26591;43.264;26.940;2022-11-15T14:16:38;29.42;;;12.80;;
40871;SDS011;26591;43.264;26.940;2022-11-15T14:19:50;22.80;;;12.63;;
40871;SDS011;26591;43.264;26.940;2022-11-15T14:24:38;19.77;;;12.27;;
40871;SDS011;26591;43.264;26.940;2022-11-15T14:27:18;29.02;;;16.38;;
40871;SDS011;26591;43.264;26.940;2022-11-15T14:29:47;34.90;;;17.02;;
40871;SDS011;26591;43.264;26.940;2022-11-15T14:34:59;30.58;;;16.23;;
40871;SDS011;26591;43.264;26.940;2022-11-15T14:37:31;23.20;;;14.63;;
40871;SDS011;26591;43.264;26.940;2022-11-15T14:39:59;44.35;;;20.80;;
40871;SDS011;26591;43.264;26.940;2022-11-15T14:42:26;52.92;;;22.50;;
40871;SDS011;26591;43.264;26.940;2022-11-15T14:44:51;49.92;;;23.17;;
40871;SDS011;26591;43.264;26.940;2022-11-15T14:47:17;51.45;;;24.95;;
40871;SDS011;26591;43.264;26.940;2022-11-15T14:49:43;45.15;;;23.67;;
40871;SDS011;26591;43.264;26.940;2022-11-15T14:52:20;56.78;;;24.23;;
40871;SDS011;26591;43.264;26.940;2022-11-15T14:54:55;51.15;;;25.35;;
40871;SDS011;26591;43.264;26.940;2022-11-15T14:57:23;58.60;;;25.70;;
40871;SDS011;26591;43.264;26.940;2022-11-15T14:59:49;53.20;;;24.80;;
40871;SDS011;26591;43.264;26.940;2022-11-15T15:02:16;38.65;;;21.65;;
40871;SDS011;26591;43.264;26.940;2022-11-15T15:04:43;48.08;;;28.75;;
40871;SDS011;26591;43.264;26.940;2022-11-15T15:07:09;36.75;;;23.73;;
40871;SDS011;26591;43.264;26.940;2022-11-15T15:09:34;36.53;;;21.00;;
40871;SDS011;26591;43.264;26.940;2022-11-15T15:12:00;49.83;;;23.35;;
40871;SDS011;26591;43.264;26.940;2022-11-15T15:14:25;46.95;;;24.45;;
40871;SDS011;26591;43.264;26.940;2022-11-15T15:16:51;50.83;;;26.77;;
40871;SDS011;26591;43.264;26.940;2022-11-15T15:19:16;61.65;;;32.58;;
40871;SDS011;26591;43.264;26.940;2022-11-15T15:21:42;61.38;;;33.05;;
40871;SDS011;26591;43.264;26.940;2022-11-15T15:24:11;60.30;;;33.08;;
40871;SDS011;26591;43.264;26.940;2022-11-15T15:26:40;48.63;;;32.10;;
40871;SDS011;26591;43.264;26.940;2022-11-15T15:29:05;54.80;;;33.72;;
40871;SDS011;26591;43.264;26.940;2022-11-15T15:31:34;51.22;;;32.53;;
40871;SDS011;26591;43.264;26.940;2022-11-15T15:34:02;55.53;;;31.13;;
40871;SDS011;26591;43.264;26.940;2022-11-15T15:36:27;56.22;;;34.63;;
40871;SDS011;26591;43.264;26.940;2022-11-15T15:38:53;65.53;;;36.35;;
40871;SDS011;26591;43.264;26.940;2022-11-15T15:41:18;67.50;;;38.83;;
40871;SDS011;26591;43.264;26.940;2022-11-15T15:43:47;78.78;;;40.40;;
40871;SDS011;26591;43.264;26.940;2022-11-15T15:46:16;72.50;;;42.28;;
40871;SDS011;26591;43.264;26.940;2022-11-15T15:48:43;61.53;;;39.63;;
40871;SDS011;26591;43.264;26.940;2022-11-15T15:51:09;71.07;;;35.67;;
40871;SDS011;26591;43.264;26.940;2022-11-15T15:53:35;56.25;;;31.65;;
40871;SDS011;26591;43.264;26.940;2022-11-15T15:56:00;51.55;;;28.38;;
40871;SDS011;26591;43.264;26.940;2022-11-15T15:58:26;56.65;;;26.83;;
40871;SDS011;26591;43.264;26.940;2022-11-15T16:00:51;47.10;;;25.95;;
40871;SDS011;26591;43.264;26.940;2022-11-15T16:03:17;42.83;;;29.33;;
40871;SDS011;26591;43.264;26.940;2022-11-15T16:05:43;58.22;;;32.03;;
40871;SDS011;26591;43.264;26.940;2022-11-15T16:08:18;58.10;;;31.00;;
40871;SDS011;26591;43.264;26.940;2022-11-15T16:10:45;56.10;;;31.60;;
40871;SDS011;26591;43.264;26.940;2022-11-15T16:13:11;49.83;;;31.13;;
40871;SDS011;26591;43.264;26.940;2022-11-15T16:15:36;55.20;;;32.28;;
40871;SDS011;26591;43.264;26.940;2022-11-15T16:18:03;60.75;;;38.30;;
40871;SDS011;26591;43.264;26.940;2022-11-15T16:20:36;64.03;;;36.15;;
40871;SDS011;26591;43.264;26.940;2022-11-15T16:23:18;52.50;;;34.08;;
40871;SDS011;26591;43.264;26.940;2022-11-15T16:25:49;68.07;;;37.53;;
40871;SDS011;26591;43.264;26.940;2022-11-15T16:28:23;71.18;;;45.05;;
40871;SDS011;26591;43.264;26.940;2022-11-15T16:33:25;78.20;;;48.17;;
40871;SDS011;26591;43.264;26.940;2022-11-15T16:35:51;75.97;;;45.03;;
40871;SDS011;26591;43.264;26.940;2022-11-15T16:38:19;65.50;;;40.42;;
40871;SDS011;26591;43.264;26.940;2022-11-15T16:40:44;67.68;;;38.08;;
40871;SDS011;26591;43.264;26.940;2022-11-15T16:43:10;64.80;;;43.97;;
40871;SDS011;26591;43.264;26.940;2022-11-15T16:45:36;59.70;;;38.72;;
40871;SDS011;26591;43.264;26.940;2022-11-15T16:48:02;69.75;;;41.58;;
40871;SDS011;26591;43.264;26.940;2022-11-15T16:50:29;72.00;;;42.42;;
40871;SDS011;26591;43.264;26.940;2022-11-15T16:53:03;73.15;;;42.03;;
40871;SDS011;26591;43.264;26.940;2022-11-15T16:55:29;78.07;;;43.13;;
40871;SDS011;26591;43.264;26.940;2022-11-15T16:57:55;70.75;;;40.60;;